sensor_id;sensor_type;location;lat;lon;timestamp;pressure;altitude;pressure_sealevel;temperature;humidity
73457;BME280;61691;53.072;6.582;2023-04-06T00:00:10;101913.94;;;3.27;58.50
73457;BME280;61691;53.072;6.582;2023-04-06T00:02:38;101909.56;;;3.27;58.86
73457;BME280;61691;53.072;6.582;2023-04-06T00:05:05;101824.28;;;2.77;58.48
73457;BME280;61691;53.072;6.582;2023-04-06T00:07:33;101908.75;;;3.25;58.66
73457;BME280;61691;53.072;6.582;2023-04-06T00:10:00;101896.97;;;3.15;58.89
73457;BME280;61691;53.072;6.582;2023-04-06T00:12:27;101902.97;;;3.17;58.80
73457;BME280;61691;53.072;6.582;2023-04-06T00:14:53;101897.88;;;3.14;58.63
73457;BME280;61691;53.072;6.582;2023-04-06T00:17:20;101892.97;;;3.05;58.70
73457;BME280;61691;53.072;6.582;2023-04-06T00:19:47;101892.97;;;3.05;59.00
73457;BME280;61691;53.072;6.582;2023-04-06T00:22:14;101891.38;;;3.01;58.56
73457;BME280;61691;53.072;6.582;2023-04-06T00:24:41;101898.34;;;3.02;58.71
73457;BME280;61691;53.072;6.582;2023-04-06T00:27:07;101898.47;;;2.99;58.54
73457;BME280;61691;53.072;6.582;2023-04-06T00:29:34;101876.41;;;2.83;59.03
73457;BME280;61691;53.072;6.582;2023-04-06T00:32:01;101884.03;;;2.89;58.86
73457;BME280;61691;53.072;6.582;2023-04-06T00:34:28;101862.94;;;2.70;58.89
73457;BME280;61691;53.072;6.582;2023-04-06T00:36:54;101868.81;;;2.77;58.91
73457;BME280;61691;53.072;6.582;2023-04-06T00:39:21;101865.38;;;2.75;58.99
73457;BME280;61691;53.072;6.582;2023-04-06T00:41:52;101887.00;;;2.80;59.37
73457;BME280;61691;53.072;6.582;2023-04-06T00:44:19;101875.75;;;2.78;59.07
73457;BME280;61691;53.072;6.582;2023-04-06T00:46:47;101878.47;;;2.75;59.16
73457;BME280;61691;53.072;6.582;2023-04-06T00:49:13;101876.91;;;2.70;59.39
73457;BME280;61691;53.072;6.582;2023-04-06T00:51:40;101788.94;;;2.21;59.24
73457;BME280;61691;53.072;6.582;2023-04-06T00:54:07;101860.69;;;2.61;59.50
73457;BME280;61691;53.072;6.582;2023-04-06T00:56:34;101865.78;;;2.64;59.33
73457;BME280;61691;53.072;6.582;2023-04-06T00:59:01;101822.31;;;2.38;59.61
73457;BME280;61691;53.072;6.582;2023-04-06T01:01:28;101832.53;;;2.44;59.55
73457;BME280;61691;53.072;6.582;2023-04-06T01:03:55;101865.31;;;2.54;59.74
73457;BME280;61691;53.072;6.582;2023-04-06T01:06:22;101854.09;;;2.51;59.84
73457;BME280;61691;53.072;6.582;2023-04-06T01:08:49;101838.56;;;2.46;59.74
73457;BME280;61691;53.072;6.582;2023-04-06T01:11:17;101819.78;;;2.35;59.62
73457;BME280;61691;53.072;6.582;2023-04-06T01:13:44;101813.88;;;2.30;59.86
73457;BME280;61691;53.072;6.582;2023-04-06T01:16:10;101835.25;;;2.41;59.75
73457;BME280;61691;53.072;6.582;2023-04-06T01:18:37;101793.44;;;2.18;59.88
73457;BME280;61691;53.072;6.582;2023-04-06T01:21:04;101820.69;;;2.34;59.90
73457;BME280;61691;53.072;6.582;2023-04-06T01:23:31;101819.13;;;2.30;60.37
73457;BME280;61691;53.072;6.582;2023-04-06T01:25:58;101819.03;;;2.33;60.47
73457;BME280;61691;53.072;6.582;2023-04-06T01:28:25;101822.41;;;2.35;60.58
73457;BME280;61691;53.072;6.582;2023-04-06T01:30:51;101824.25;;;2.33;60.26
73457;BME280;61691;53.072;6.582;2023-04-06T01:33:18;101807.19;;;2.23;60.42
73457;BME280;61691;53.072;6.582;2023-04-06T01:35:45;101816.63;;;2.27;60.64
73457;BME280;61691;53.072;6.582;2023-04-06T01:38:12;101796.97;;;2.17;60.48
73457;BME280;61691;53.072;6.582;2023-04-06T01:40:39;101795.25;;;2.16;60.35
73457;BME280;61691;53.072;6.582;2023-04-06T01:43:05;101810.47;;;2.28;60.92
73457;BME280;61691;53.072;6.582;2023-04-06T01:45:33;101800.44;;;2.17;60.45
73457;BME280;61691;53.072;6.582;2023-04-06T01:48:00;101807.19;;;2.23;60.87
73457;BME280;61691;53.072;6.582;2023-04-06T01:50:26;101809.13;;;2.18;60.87
73457;BME280;61691;53.072;6.582;2023-04-06T01:52:53;101725.47;;;1.71;60.84
73457;BME280;61691;53.072;6.582;2023-04-06T01:55:20;101804.00;;;2.15;60.95
73457;BME280;61691;53.072;6.582;2023-04-06T01:57:46;101810.94;;;2.16;61.00
73457;BME280;61691;53.072;6.582;2023-04-06T02:00:14;101795.50;;;2.10;61.18
73457;BME280;61691;53.072;6.582;2023-04-06T02:02:41;101720.22;;;1.71;61.31
73457;BME280;61691;53.072;6.582;2023-04-06T02:05:08;101796.16;;;2.15;61.16
73457;BME280;61691;53.072;6.582;2023-04-06T02:07:35;101778.31;;;2.03;60.83
73457;BME280;61691;53.072;6.582;2023-04-06T02:10:02;101792.88;;;2.10;60.95
73457;BME280;61691;53.072;6.582;2023-04-06T02:12:29;101774.72;;;2.05;61.23
73457;BME280;61691;53.072;6.582;2023-04-06T02:14:56;101781.72;;;2.05;61.07
73457;BME280;61691;53.072;6.582;2023-04-06T02:17:22;101682.94;;;1.43;61.23
73457;BME280;61691;53.072;6.582;2023-04-06T02:19:49;101780.13;;;2.01;60.98
73457;BME280;61691;53.072;6.582;2023-04-06T02:22:16;101790.47;;;2.04;61.82
73457;BME280;61691;53.072;6.582;2023-04-06T02:24:43;101785.22;;;2.04;61.09
73457;BME280;61691;53.072;6.582;2023-04-06T02:27:09;101786.16;;;2.03;61.24
73457;BME280;61691;53.072;6.582;2023-04-06T02:29:36;101775.00;;;1.98;61.29
73457;BME280;61691;53.072;6.582;2023-04-06T02:32:03;101759.56;;;1.91;61.25
73457;BME280;61691;53.072;6.582;2023-04-06T02:34:30;101778.41;;;2.00;61.51
73457;BME280;61691;53.072;6.582;2023-04-06T02:36:57;101757.03;;;1.88;61.31
73457;BME280;61691;53.072;6.582;2023-04-06T02:39:24;101751.88;;;1.87;61.50
73457;BME280;61691;53.072;6.582;2023-04-06T02:41:50;101769.91;;;1.94;61.36
73457;BME280;61691;53.072;6.582;2023-04-06T02:44:18;101762.97;;;1.93;61.23
73457;BME280;61691;53.072;6.582;2023-04-06T02:46:44;101768.06;;;1.97;61.60
73457;BME280;61691;53.072;6.582;2023-04-06T02:49:11;101723.75;;;1.70;61.47
73457;BME280;61691;53.072;6.582;2023-04-06T02:51:38;101750.19;;;1.86;61.39
73457;BME280;61691;53.072;6.582;2023-04-06T02:54:04;101732.25;;;1.75;61.53
73457;BME280;61691;53.072;6.582;2023-04-06T02:56:31;101749.31;;;1.85;61.33
73457;BME280;61691;53.072;6.582;2023-04-06T02:58:58;101756.94;;;1.91;61.68
73457;BME280;61691;53.072;6.582;2023-04-06T03:01:26;101759.66;;;1.88;61.33
73457;BME280;61691;53.072;6.582;2023-04-06T03:03:53;101759.66;;;1.88;61.53
73457;BME280;61691;53.072;6.582;2023-04-06T03:06:19;101722.13;;;1.66;61.47
73457;BME280;61691;53.072;6.582;2023-04-06T03:08:46;101752.84;;;1.84;61.65
73457;BME280;61691;53.072;6.582;2023-04-06T03:11:13;101744.44;;;1.76;61.39
73457;BME280;61691;53.072;6.582;2023-04-06T03:13:40;101743.56;;;1.76;61.45
73457;BME280;61691;53.072;6.582;2023-04-06T03:16:07;101758.16;;;1.81;61.55
73457;BME280;61691;53.072;6.582;2023-04-06T03:18:34;101742.00;;;1.72;61.45
73457;BME280;61691;53.072;6.582;2023-04-06T03:21:00;101737.63;;;1.72;61.45
73457;BME280;61691;53.072;6.582;2023-04-06T03:23:28;101750.50;;;1.77;61.58
73457;BME280;61691;53.072;6.582;2023-04-06T03:25:54;101713.63;;;1.61;61.77
73457;BME280;61691;53.072;6.582;2023-04-06T03:28:21;101722.03;;;1.69;61.82
73457;BME280;61691;53.072;6.582;2023-04-06T03:30:48;101745.06;;;1.83;61.83
73457;BME280;61691;53.072;6.582;2023-04-06T03:33:15;101739.09;;;1.79;61.40
73457;BME280;61691;53.072;6.582;2023-04-06T03:35:42;101745.09;;;1.81;61.39
73457;BME280;61691;53.072;6.582;2023-04-06T03:38:09;101642.63;;;1.27;61.58
73457;BME280;61691;53.072;6.582;2023-04-06T03:40:36;101728.06;;;1.71;61.58
73457;BME280;61691;53.072;6.582;2023-04-06T03:43:03;101734.03;;;1.75;61.70
73457;BME280;61691;53.072;6.582;2023-04-06T03:45:30;101711.81;;;1.63;61.49
73457;BME280;61691;53.072;6.582;2023-04-06T03:47:57;101723.84;;;1.67;61.87
73457;BME280;61691;53.072;6.582;2023-04-06T03:50:24;101646.28;;;1.21;61.67
73457;BME280;61691;53.072;6.582;2023-04-06T03:52:50;101735.91;;;1.71;61.71
73457;BME280;61691;53.072;6.582;2023-04-06T03:55:17;101738.56;;;1.70;61.67
73457;BME280;61691;53.072;6.582;2023-04-06T03:57:44;101699.38;;;1.46;61.93
73457;BME280;61691;53.072;6.582;2023-04-06T04:00:11;101732.59;;;1.66;61.88
73457;BME280;61691;53.072;6.582;2023-04-06T04:02:38;101710.44;;;1.53;61.83
73457;BME280;61691;53.072;6.582;2023-04-06T04:05:05;101729.22;;;1.64;61.72
73457;BME280;61691;53.072;6.582;2023-04-06T04:07:32;101706.25;;;1.49;61.97
73457;BME280;61691;53.072;6.582;2023-04-06T04:09:59;101716.44;;;1.57;61.96
73457;BME280;61691;53.072;6.582;2023-04-06T04:12:26;101725.88;;;1.59;61.76
73457;BME280;61691;53.072;6.582;2023-04-06T04:14:52;101703.72;;;1.46;62.17
73457;BME280;61691;53.072;6.582;2023-04-06T04:17:19;101696.06;;;1.41;61.71
73457;BME280;61691;53.072;6.582;2023-04-06T04:19:46;101707.16;;;1.48;62.11
73457;BME280;61691;53.072;6.582;2023-04-06T04:22:13;101733.81;;;1.58;61.96
73457;BME280;61691;53.072;6.582;2023-04-06T04:24:39;101714.88;;;1.51;61.98
73457;BME280;61691;53.072;6.582;2023-04-06T04:27:06;101699.63;;;1.39;62.24
73457;BME280;61691;53.072;6.582;2023-04-06T04:29:33;101727.81;;;1.54;62.31
73457;BME280;61691;53.072;6.582;2023-04-06T04:32:00;101720.25;;;1.46;62.37
73457;BME280;61691;53.072;6.582;2023-04-06T04:34:27;101712.69;;;1.39;62.47
73457;BME280;61691;53.072;6.582;2023-04-06T04:36:54;101716.13;;;1.41;62.52
73457;BME280;61691;53.072;6.582;2023-04-06T04:39:21;101687.22;;;1.21;62.56
73457;BME280;61691;53.072;6.582;2023-04-06T04:41:47;101724.00;;;1.39;62.72
73457;BME280;61691;53.072;6.582;2023-04-06T04:44:14;101707.56;;;1.36;62.43
73457;BME280;61691;53.072;6.582;2023-04-06T04:46:41;101691.28;;;1.29;62.43
73457;BME280;61691;53.072;6.582;2023-04-06T04:49:08;101715.28;;;1.40;62.33
73457;BME280;61691;53.072;6.582;2023-04-06T04:51:35;101696.34;;;1.34;62.42
73457;BME280;61691;53.072;6.582;2023-04-06T04:54:02;101710.91;;;1.41;62.61
73457;BME280;61691;53.072;6.582;2023-04-06T04:56:29;101706.56;;;1.40;62.69
73457;BME280;61691;53.072;6.582;2023-04-06T04:58:56;101682.59;;;1.29;62.45
73457;BME280;61691;53.072;6.582;2023-04-06T05:01:23;101710.66;;;1.47;62.93
73457;BME280;61691;53.072;6.582;2023-04-06T05:03:50;101719.94;;;1.55;62.57
73457;BME280;61691;53.072;6.582;2023-04-06T05:06:17;101661.97;;;1.21;62.44
73457;BME280;61691;53.072;6.582;2023-04-06T05:08:45;101718.19;;;1.56;62.74
73457;BME280;61691;53.072;6.582;2023-04-06T05:11:12;101709.53;;;1.54;62.86
73457;BME280;61691;53.072;6.582;2023-04-06T05:13:39;101717.09;;;1.62;62.87
73457;BME280;61691;53.072;6.582;2023-04-06T05:16:06;101716.91;;;1.66;62.72
73457;BME280;61691;53.072;6.582;2023-04-06T05:18:33;101704.97;;;1.59;62.79
73457;BME280;61691;53.072;6.582;2023-04-06T05:21:00;101720.34;;;1.68;62.98
73457;BME280;61691;53.072;6.582;2023-04-06T05:23:27;101705.59;;;1.66;62.76
73457;BME280;61691;53.072;6.582;2023-04-06T05:25:53;101713.16;;;1.73;62.48
73457;BME280;61691;53.072;6.582;2023-04-06T05:28:20;101704.56;;;1.71;62.42
73457;BME280;61691;53.072;6.582;2023-04-06T05:30:47;101672.06;;;1.55;62.66
73457;BME280;61691;53.072;6.582;2023-04-06T05:33:13;101692.50;;;1.67;62.47
73457;BME280;61691;53.072;6.582;2023-04-06T05:35:40;101689.72;;;1.72;62.46
73457;BME280;61691;53.072;6.582;2023-04-06T05:38:08;101677.38;;;1.75;62.48
73457;BME280;61691;53.072;6.582;2023-04-06T05:40:36;101718.22;;;2.01;62.54
73457;BME280;61691;53.072;6.582;2023-04-06T05:43:04;101680.88;;;1.98;62.16
73457;BME280;61691;53.072;6.582;2023-04-06T05:45:31;101686.59;;;2.07;62.08
73457;BME280;61691;53.072;6.582;2023-04-06T05:47:57;101701.69;;;2.22;61.87
73457;BME280;61691;53.072;6.582;2023-04-06T05:50:24;101681.78;;;2.18;61.87
73457;BME280;61691;53.072;6.582;2023-04-06T05:52:51;101701.94;;;2.38;61.78
73457;BME280;61691;53.072;6.582;2023-04-06T05:55:18;101701.59;;;2.47;61.56
73457;BME280;61691;53.072;6.582;2023-04-06T05:57:44;101700.16;;;2.60;61.28
73457;BME280;61691;53.072;6.582;2023-04-06T06:00:12;101693.66;;;2.70;61.44
73457;BME280;61691;53.072;6.582;2023-04-06T06:02:38;101675.44;;;2.67;61.07
73457;BME280;61691;53.072;6.582;2023-04-06T06:05:06;101684.34;;;2.84;61.04
73457;BME280;61691;53.072;6.582;2023-04-06T06:07:33;101661.69;;;2.83;60.85
73457;BME280;61691;53.072;6.582;2023-04-06T06:10:00;101678.19;;;3.05;60.49
73457;BME280;61691;53.072;6.582;2023-04-06T06:12:27;101683.03;;;3.14;60.39
73457;BME280;61691;53.072;6.582;2023-04-06T06:14:54;101680.94;;;3.22;60.18
73457;BME280;61691;53.072;6.582;2023-04-06T06:17:21;101678.00;;;3.30;60.14
73457;BME280;61691;53.072;6.582;2023-04-06T06:19:48;101685.22;;;3.43;59.98
73457;BME280;61691;53.072;6.582;2023-04-06T06:22:15;101692.25;;;3.62;60.04
73457;BME280;61691;53.072;6.582;2023-04-06T06:24:42;101684.38;;;3.62;59.24
73457;BME280;61691;53.072;6.582;2023-04-06T06:27:09;101672.97;;;3.63;59.05
73457;BME280;61691;53.072;6.582;2023-04-06T06:29:35;101686.41;;;3.75;58.89
73457;BME280;61691;53.072;6.582;2023-04-06T06:32:02;101683.22;;;3.87;59.24
73457;BME280;61691;53.072;6.582;2023-04-06T06:34:29;101681.00;;;3.97;58.87
73457;BME280;61691;53.072;6.582;2023-04-06T06:36:56;101663.41;;;3.99;58.65
73457;BME280;61691;53.072;6.582;2023-04-06T06:39:23;101672.91;;;4.20;58.60
73457;BME280;61691;53.072;6.582;2023-04-06T06:41:49;101635.59;;;4.14;58.41
73457;BME280;61691;53.072;6.582;2023-04-06T06:44:16;101658.75;;;4.42;58.34
73457;BME280;61691;53.072;6.582;2023-04-06T06:46:43;101687.16;;;4.68;57.63
73457;BME280;61691;53.072;6.582;2023-04-06T06:49:10;101688.25;;;4.81;57.66
73457;BME280;61691;53.072;6.582;2023-04-06T06:51:38;101673.28;;;4.83;56.63
73457;BME280;61691;53.072;6.582;2023-04-06T06:54:05;101677.06;;;4.95;57.06
73457;BME280;61691;53.072;6.582;2023-04-06T06:56:33;101692.41;;;5.20;56.81
73457;BME280;61691;53.072;6.582;2023-04-06T06:59:02;101677.28;;;5.25;56.54
73457;BME280;61691;53.072;6.582;2023-04-06T07:01:29;101673.97;;;5.37;56.45
73457;BME280;61691;53.072;6.582;2023-04-06T07:03:56;101682.91;;;5.50;56.13
73457;BME280;61691;53.072;6.582;2023-04-06T07:06:22;101681.16;;;5.66;55.82
73457;BME280;61691;53.072;6.582;2023-04-06T07:08:49;101694.06;;;6.04;56.54
73457;BME280;61691;53.072;6.582;2023-04-06T07:11:16;101660.16;;;6.75;56.77
73457;BME280;61691;53.072;6.582;2023-04-06T07:13:43;101682.13;;;8.03;55.65
73457;BME280;61691;53.072;6.582;2023-04-06T07:16:10;101678.69;;;9.08;54.05
73457;BME280;61691;53.072;6.582;2023-04-06T07:18:36;101646.69;;;9.75;52.13
73457;BME280;61691;53.072;6.582;2023-04-06T07:21:03;101661.25;;;10.53;50.75
73457;BME280;61691;53.072;6.582;2023-04-06T07:23:31;101674.13;;;11.28;48.63
73457;BME280;61691;53.072;6.582;2023-04-06T07:25:57;101618.38;;;11.83;48.51
73457;BME280;61691;53.072;6.582;2023-04-06T07:28:24;101650.56;;;12.76;46.07
73457;BME280;61691;53.072;6.582;2023-04-06T07:30:51;101657.97;;;13.35;42.95
73457;BME280;61691;53.072;6.582;2023-04-06T07:33:19;101664.31;;;13.74;41.91
73457;BME280;61691;53.072;6.582;2023-04-06T07:35:45;101662.28;;;14.06;40.42
73457;BME280;61691;53.072;6.582;2023-04-06T07:38:12;101651.16;;;13.82;38.59
73457;BME280;61691;53.072;6.582;2023-04-06T07:40:39;101656.16;;;13.35;37.92
73457;BME280;61691;53.072;6.582;2023-04-06T07:43:06;101600.78;;;12.46;38.23
73457;BME280;61691;53.072;6.582;2023-04-06T07:45:33;101647.94;;;12.33;38.06
73457;BME280;61691;53.072;6.582;2023-04-06T07:47:59;101627.56;;;11.79;38.15
73457;BME280;61691;53.072;6.582;2023-04-06T07:50:26;101652.41;;;11.56;38.59
73457;BME280;61691;53.072;6.582;2023-04-06T07:52:53;101630.91;;;11.14;38.77
73457;BME280;61691;53.072;6.582;2023-04-06T07:55:20;101657.44;;;11.03;38.70
73457;BME280;61691;53.072;6.582;2023-04-06T07:57:46;101649.44;;;10.81;39.61
73457;BME280;61691;53.072;6.582;2023-04-06T08:00:14;101645.50;;;10.63;39.80
73457;BME280;61691;53.072;6.582;2023-04-06T08:02:40;101635.81;;;10.51;40.16
73457;BME280;61691;53.072;6.582;2023-04-06T08:05:08;101649.34;;;10.59;40.24
73457;BME280;61691;53.072;6.582;2023-04-06T08:07:35;101629.56;;;10.52;40.62
73457;BME280;61691;53.072;6.582;2023-04-06T08:10:03;101624.00;;;10.43;41.11
73457;BME280;61691;53.072;6.582;2023-04-06T08:12:29;101581.06;;;10.15;41.03
73457;BME280;61691;53.072;6.582;2023-04-06T08:14:56;101598.38;;;10.31;40.95
73457;BME280;61691;53.072;6.582;2023-04-06T08:17:23;101623.84;;;10.45;41.24
73457;BME280;61691;53.072;6.582;2023-04-06T08:19:50;101637.91;;;10.58;40.88
73457;BME280;61691;53.072;6.582;2023-04-06T08:22:17;101638.00;;;10.57;40.75
73457;BME280;61691;53.072;6.582;2023-04-06T08:24:44;101616.75;;;10.45;41.40
73457;BME280;61691;53.072;6.582;2023-04-06T08:27:11;101634.13;;;10.50;41.18
73457;BME280;61691;53.072;6.582;2023-04-06T08:29:37;101638.97;;;10.56;41.40
73457;BME280;61691;53.072;6.582;2023-04-06T08:32:04;101610.00;;;10.41;41.08
73457;BME280;61691;53.072;6.582;2023-04-06T08:34:32;101606.50;;;10.41;41.15
73457;BME280;61691;53.072;6.582;2023-04-06T08:36:59;101583.44;;;10.30;41.11
73457;BME280;61691;53.072;6.582;2023-04-06T08:39:27;101632.78;;;10.44;41.18
73457;BME280;61691;53.072;6.582;2023-04-06T08:41:55;101635.44;;;10.44;41.12
73457;BME280;61691;53.072;6.582;2023-04-06T08:44:23;101613.09;;;10.35;40.99
73457;BME280;61691;53.072;6.582;2023-04-06T08:46:50;101592.22;;;10.31;40.97
73457;BME280;61691;53.072;6.582;2023-04-06T08:49:19;101612.28;;;10.46;41.09
73457;BME280;61691;53.072;6.582;2023-04-06T08:51:46;101565.34;;;10.24;40.66
73457;BME280;61691;53.072;6.582;2023-04-06T08:54:13;101601.84;;;10.56;40.57
73457;BME280;61691;53.072;6.582;2023-04-06T08:56:40;101618.03;;;10.64;39.65
73457;BME280;61691;53.072;6.582;2023-04-06T08:59:08;101616.00;;;10.67;40.23
73457;BME280;61691;53.072;6.582;2023-04-06T09:01:39;101548.56;;;10.36;40.96
73457;BME280;61691;53.072;6.582;2023-04-06T09:04:07;101630.84;;;10.81;40.25
73457;BME280;61691;53.072;6.582;2023-04-06T09:06:39;101617.50;;;10.82;40.38
73457;BME280;61691;53.072;6.582;2023-04-06T09:09:07;101596.38;;;10.81;40.46
73457;BME280;61691;53.072;6.582;2023-04-06T09:11:48;101631.75;;;11.15;40.39
73457;BME280;61691;53.072;6.582;2023-04-06T09:14:15;101578.81;;;11.02;40.32
73457;BME280;61691;53.072;6.582;2023-04-06T09:16:45;101622.25;;;11.46;40.18
73457;BME280;61691;53.072;6.582;2023-04-06T09:19:12;101596.91;;;11.42;39.72
73457;BME280;61691;53.072;6.582;2023-04-06T09:21:39;101574.59;;;11.33;39.37
73457;BME280;61691;53.072;6.582;2023-04-06T09:24:07;101594.22;;;11.53;38.55
73457;BME280;61691;53.072;6.582;2023-04-06T09:26:45;101611.97;;;11.63;38.97
73457;BME280;61691;53.072;6.582;2023-04-06T09:29:23;101608.22;;;11.66;36.81
73457;BME280;61691;53.072;6.582;2023-04-06T09:32:05;101601.94;;;11.67;37.73
73457;BME280;61691;53.072;6.582;2023-04-06T09:34:33;101584.81;;;11.60;37.97
73457;BME280;61691;53.072;6.582;2023-04-06T09:37:00;101573.72;;;11.44;37.53
73457;BME280;61691;53.072;6.582;2023-04-06T09:39:38;101583.63;;;11.53;38.02
73457;BME280;61691;53.072;6.582;2023-04-06T09:42:05;101598.09;;;11.71;37.92
73457;BME280;61691;53.072;6.582;2023-04-06T09:44:31;101587.00;;;11.77;38.13
73457;BME280;61691;53.072;6.582;2023-04-06T09:46:58;101556.44;;;11.72;38.10
73457;BME280;61691;53.072;6.582;2023-04-06T09:49:30;101582.19;;;12.03;37.57
73457;BME280;61691;53.072;6.582;2023-04-06T09:52:06;101578.47;;;12.06;37.32
73457;BME280;61691;53.072;6.582;2023-04-06T09:54:35;101550.69;;;11.98;37.40
73457;BME280;61691;53.072;6.582;2023-04-06T09:57:25;101559.63;;;12.09;37.14
73457;BME280;61691;53.072;6.582;2023-04-06T10:00:12;101577.16;;;12.32;37.60
73457;BME280;61691;53.072;6.582;2023-04-06T10:02:58;101570.16;;;12.31;36.40
73457;BME280;61691;53.072;6.582;2023-04-06T10:08:11;101557.72;;;12.31;37.00
73457;BME280;61691;53.072;6.582;2023-04-06T10:10:38;101567.19;;;12.45;37.10
73457;BME280;61691;53.072;6.582;2023-04-06T10:13:05;101547.53;;;12.36;37.03
73457;BME280;61691;53.072;6.582;2023-04-06T10:15:32;101558.44;;;12.54;36.87
73457;BME280;61691;53.072;6.582;2023-04-06T10:18:01;101563.16;;;12.71;36.53
73457;BME280;61691;53.072;6.582;2023-04-06T10:23:33;101565.84;;;13.02;36.35
73457;BME280;61691;53.072;6.582;2023-04-06T10:26:01;101559.81;;;13.00;36.04
73457;BME280;61691;53.072;6.582;2023-04-06T10:28:34;101546.47;;;12.90;36.04
73457;BME280;61691;53.072;6.582;2023-04-06T10:31:05;101572.31;;;13.09;36.55
73457;BME280;61691;53.072;6.582;2023-04-06T10:33:33;101552.28;;;13.05;36.50
73457;BME280;61691;53.072;6.582;2023-04-06T10:36:15;101565.97;;;13.21;36.59
73457;BME280;61691;53.072;6.582;2023-04-06T10:38:54;101561.34;;;13.23;36.45
73457;BME280;61691;53.072;6.582;2023-04-06T10:41:22;101557.53;;;13.16;35.89
73457;BME280;61691;53.072;6.582;2023-04-06T10:43:56;101561.66;;;13.09;36.07
73457;BME280;61691;53.072;6.582;2023-04-06T10:46:28;101545.38;;;12.93;35.68
73457;BME280;61691;53.072;6.582;2023-04-06T10:48:56;101548.72;;;12.95;36.19
73457;BME280;61691;53.072;6.582;2023-04-06T10:51:27;101550.75;;;13.12;36.09
73457;BME280;61691;53.072;6.582;2023-04-06T10:53:55;101530.09;;;13.15;35.90
73457;BME280;61691;53.072;6.582;2023-04-06T10:56:24;101548.66;;;13.36;35.84
73457;BME280;61691;53.072;6.582;2023-04-06T10:58:54;101504.75;;;13.21;35.48
73457;BME280;61691;53.072;6.582;2023-04-06T11:01:24;101547.31;;;13.51;35.93
73457;BME280;61691;53.072;6.582;2023-04-06T11:03:56;101546.75;;;13.57;35.80
73457;BME280;61691;53.072;6.582;2023-04-06T11:06:28;101542.56;;;13.65;35.43
73457;BME280;61691;53.072;6.582;2023-04-06T11:08:58;101499.63;;;13.48;35.64
73457;BME280;61691;53.072;6.582;2023-04-06T11:11:25;101540.03;;;13.73;35.42
73457;BME280;61691;53.072;6.582;2023-04-06T11:13:54;101539.34;;;13.71;35.39
73457;BME280;61691;53.072;6.582;2023-04-06T11:16:30;101530.50;;;13.70;35.52
73457;BME280;61691;53.072;6.582;2023-04-06T11:19:02;101536.69;;;13.80;35.24
73457;BME280;61691;53.072;6.582;2023-04-06T11:21:36;101533.91;;;13.82;34.74
73457;BME280;61691;53.072;6.582;2023-04-06T11:29:11;101533.63;;;13.94;34.86
73457;BME280;61691;53.072;6.582;2023-04-06T11:31:48;101500.22;;;13.81;35.56
73457;BME280;61691;53.072;6.582;2023-04-06T11:34:20;101513.84;;;13.87;34.63
73457;BME280;61691;53.072;6.582;2023-04-06T11:36:48;101500.22;;;13.71;34.90
73457;BME280;61691;53.072;6.582;2023-04-06T11:39:21;101527.44;;;13.94;34.88
73457;BME280;61691;53.072;6.582;2023-04-06T11:41:50;101463.03;;;13.70;35.17
73457;BME280;61691;53.072;6.582;2023-04-06T11:44:46;101525.50;;;14.06;34.21
73457;BME280;61691;53.072;6.582;2023-04-06T11:47:15;101495.72;;;13.91;35.30
73457;BME280;61691;53.072;6.582;2023-04-06T11:49:43;101459.69;;;13.68;35.22
73457;BME280;61691;53.072;6.582;2023-04-06T11:52:24;101516.22;;;14.00;34.95
73457;BME280;61691;53.072;6.582;2023-04-06T11:54:53;101512.88;;;13.98;35.27
73457;BME280;61691;53.072;6.582;2023-04-06T11:57:21;101501.91;;;14.01;35.17
73457;BME280;61691;53.072;6.582;2023-04-06T11:59:52;101517.91;;;14.11;35.54
73457;BME280;61691;53.072;6.582;2023-04-06T12:02:19;101514.53;;;14.09;35.00
73457;BME280;61691;53.072;6.582;2023-04-06T12:04:46;101505.56;;;14.00;34.52
73457;BME280;61691;53.072;6.582;2023-04-06T12:07:13;101512.03;;;13.98;34.08
73457;BME280;61691;53.072;6.582;2023-04-06T12:09:39;101510.91;;;13.90;33.91
73457;BME280;61691;53.072;6.582;2023-04-06T12:12:06;101503.31;;;13.86;33.96
73457;BME280;61691;53.072;6.582;2023-04-06T12:14:33;101508.63;;;13.86;33.40
73457;BME280;61691;53.072;6.582;2023-04-06T12:17:00;101494.91;;;13.81;33.45
73457;BME280;61691;53.072;6.582;2023-04-06T12:19:27;101481.69;;;13.70;33.58
73457;BME280;61691;53.072;6.582;2023-04-06T12:21:56;101508.94;;;13.83;33.73
73457;BME280;61691;53.072;6.582;2023-04-06T12:24:24;101489.41;;;13.73;33.63
73457;BME280;61691;53.072;6.582;2023-04-06T12:26:50;101478.91;;;13.71;34.10
73457;BME280;61691;53.072;6.582;2023-04-06T12:29:32;101457.72;;;13.50;33.06
73457;BME280;61691;53.072;6.582;2023-04-06T12:31:59;101486.19;;;13.69;33.86
73457;BME280;61691;53.072;6.582;2023-04-06T12:34:27;101500.50;;;13.78;33.57
73457;BME280;61691;53.072;6.582;2023-04-06T12:36:54;101469.78;;;13.64;33.66
73457;BME280;61691;53.072;6.582;2023-04-06T12:39:22;101440.31;;;13.46;34.03
73457;BME280;61691;53.072;6.582;2023-04-06T12:41:49;101495.75;;;13.81;33.77
73457;BME280;61691;53.072;6.582;2023-04-06T12:44:16;101485.94;;;13.82;33.96
73457;BME280;61691;53.072;6.582;2023-04-06T12:46:43;101432.31;;;13.46;33.78
73457;BME280;61691;53.072;6.582;2023-04-06T12:49:09;101490.69;;;13.88;34.17
73457;BME280;61691;53.072;6.582;2023-04-06T12:51:36;101483.94;;;13.84;33.58
73457;BME280;61691;53.072;6.582;2023-04-06T12:54:03;101471.31;;;13.86;33.92
73457;BME280;61691;53.072;6.582;2023-04-06T12:56:30;101461.50;;;13.86;34.06
73457;BME280;61691;53.072;6.582;2023-04-06T12:58:57;101475.94;;;13.93;34.01
73457;BME280;61691;53.072;6.582;2023-04-06T13:01:24;101461.78;;;13.93;34.21
73457;BME280;61691;53.072;6.582;2023-04-06T13:03:52;101459.81;;;13.95;33.99
73457;BME280;61691;53.072;6.582;2023-04-06T13:06:19;101468.66;;;14.05;33.72
73457;BME280;61691;53.072;6.582;2023-04-06T13:08:45;101471.34;;;14.05;33.22